sensor_id;sensor_type;location;lat;lon;timestamp;temperature;humidity
41469;DHT22;27206;47.032;15.484;2023-05-29T00:00:28;15.60;99.90
41469;DHT22;27206;47.032;15.484;2023-05-29T00:02:54;15.70;99.90
41469;DHT22;27206;47.032;15.484;2023-05-29T00:05:20;15.60;99.90
41469;DHT22;27206;47.032;15.484;2023-05-29T00:07:45;15.50;99.90
41469;DHT22;27206;47.032;15.484;2023-05-29T00:10:11;15.50;99.90
41469;DHT22;27206;47.032;15.484;2023-05-29T00:12:38;15.50;99.90
41469;DHT22;27206;47.032;15.484;2023-05-29T00:15:05;15.50;99.90
41469;DHT22;27206;47.032;15.484;2023-05-29T00:17:31;15.40;99.90
41469;DHT22;27206;47.032;15.484;2023-05-29T00:20:00;15.30;99.90
41469;DHT22;27206;47.032;15.484;2023-05-29T00:22:33;15.20;99.90
41469;DHT22;27206;47.032;15.484;2023-05-29T00:25:03;15.20;99.90
41469;DHT22;27206;47.032;15.484;2023-05-29T00:27:29;15.20;99.90
41469;DHT22;27206;47.032;15.484;2023-05-29T00:29:55;15.10;99.90
41469;DHT22;27206;47.032;15.484;2023-05-29T00:32:20;15.00;99.90
41469;DHT22;27206;47.032;15.484;2023-05-29T00:34:46;15.10;99.90
41469;DHT22;27206;47.032;15.484;2023-05-29T00:37:11;15.10;99.90
41469;DHT22;27206;47.032;15.484;2023-05-29T00:39:37;15.20;99.90
41469;DHT22;27206;47.032;15.484;2023-05-29T00:42:03;15.20;99.90
41469;DHT22;27206;47.032;15.484;2023-05-29T00:44:29;15.30;99.90
41469;DHT22;27206;47.032;15.484;2023-05-29T00:46:55;15.30;99.90
41469;DHT22;27206;47.032;15.484;2023-05-29T00:49:23;15.40;99.90
41469;DHT22;27206;47.032;15.484;2023-05-29T00:51:51;15.30;99.90
41469;DHT22;27206;47.032;15.484;2023-05-29T00:54:22;15.30;99.90
41469;DHT22;27206;47.032;15.484;2023-05-29T00:56:49;15.30;99.90
41469;DHT22;27206;47.032;15.484;2023-05-29T00:59:15;15.30;99.90
41469;DHT22;27206;47.032;15.484;2023-05-29T01:01:41;15.30;99.90
41469;DHT22;27206;47.032;15.484;2023-05-29T01:04:09;15.30;99.90
41469;DHT22;27206;47.032;15.484;2023-05-29T01:06:39;15.40;99.90
41469;DHT22;27206;47.032;15.484;2023-05-29T01:09:05;15.30;99.90
41469;DHT22;27206;47.032;15.484;2023-05-29T01:17:42;15.30;99.90
41469;DHT22;27206;47.032;15.484;2023-05-29T01:25:30;15.20;99.90
41469;DHT22;27206;47.032;15.484;2023-05-29T01:28:01;15.10;99.90
41469;DHT22;27206;47.032;15.484;2023-05-29T01:30:31;15.10;99.90
41469;DHT22;27206;47.032;15.484;2023-05-29T01:32:58;15.10;99.90
41469;DHT22;27206;47.032;15.484;2023-05-29T01:35:25;15.00;99.90
41469;DHT22;27206;47.032;15.484;2023-05-29T01:37:51;14.90;99.90
41469;DHT22;27206;47.032;15.484;2023-05-29T01:40:16;14.80;99.90
41469;DHT22;27206;47.032;15.484;2023-05-29T01:42:42;14.70;99.90
41469;DHT22;27206;47.032;15.484;2023-05-29T01:45:09;14.60;99.90
41469;DHT22;27206;47.032;15.484;2023-05-29T01:47:35;14.50;99.90
41469;DHT22;27206;47.032;15.484;2023-05-29T01:50:03;14.50;99.90
41469;DHT22;27206;47.032;15.484;2023-05-29T01:52:29;14.40;99.90
41469;DHT22;27206;47.032;15.484;2023-05-29T01:54:55;14.40;99.90
41469;DHT22;27206;47.032;15.484;2023-05-29T01:57:21;14.30;99.90
41469;DHT22;27206;47.032;15.484;2023-05-29T01:59:47;14.20;99.90
41469;DHT22;27206;47.032;15.484;2023-05-29T02:02:14;14.20;99.90
41469;DHT22;27206;47.032;15.484;2023-05-29T02:04:39;14.20;99.90
41469;DHT22;27206;47.032;15.484;2023-05-29T02:07:05;14.10;99.90
41469;DHT22;27206;47.032;15.484;2023-05-29T02:09:32;14.20;99.90
41469;DHT22;27206;47.032;15.484;2023-05-29T02:11:58;14.00;99.90
41469;DHT22;27206;47.032;15.484;2023-05-29T02:14:23;13.90;99.90
41469;DHT22;27206;47.032;15.484;2023-05-29T02:16:52;13.90;99.90
41469;DHT22;27206;47.032;15.484;2023-05-29T02:19:18;13.90;99.90
41469;DHT22;27206;47.032;15.484;2023-05-29T02:21:44;13.90;99.90
41469;DHT22;27206;47.032;15.484;2023-05-29T02:24:10;13.80;99.90
41469;DHT22;27206;47.032;15.484;2023-05-29T02:26:35;13.80;99.90
41469;DHT22;27206;47.032;15.484;2023-05-29T02:29:04;13.70;99.90
41469;DHT22;27206;47.032;15.484;2023-05-29T02:31:32;13.70;99.90
41469;DHT22;27206;47.032;15.484;2023-05-29T02:33:58;13.60;99.90
41469;DHT22;27206;47.032;15.484;2023-05-29T02:36:23;13.60;99.90
41469;DHT22;27206;47.032;15.484;2023-05-29T02:38:49;13.60;99.90
41469;DHT22;27206;47.032;15.484;2023-05-29T02:41:15;13.60;99.90
41469;DHT22;27206;47.032;15.484;2023-05-29T02:43:40;13.50;99.90
41469;DHT22;27206;47.032;15.484;2023-05-29T02:46:06;13.50;99.90
41469;DHT22;27206;47.032;15.484;2023-05-29T02:48:32;13.40;99.90
41469;DHT22;27206;47.032;15.484;2023-05-29T02:50:57;13.30;99.90
41469;DHT22;27206;47.032;15.484;2023-05-29T02:53:23;13.30;99.90
41469;DHT22;27206;47.032;15.484;2023-05-29T02:55:49;13.30;99.90
41469;DHT22;27206;47.032;15.484;2023-05-29T02:58:16;13.30;99.90
41469;DHT22;27206;47.032;15.484;2023-05-29T03:00:41;13.30;99.90
41469;DHT22;27206;47.032;15.484;2023-05-29T03:03:07;13.30;99.90
41469;DHT22;27206;47.032;15.484;2023-05-29T03:05:33;13.30;99.90
41469;DHT22;27206;47.032;15.484;2023-05-29T03:07:58;13.30;99.90
41469;DHT22;27206;47.032;15.484;2023-05-29T03:10:24;13.20;99.90
41469;DHT22;27206;47.032;15.484;2023-05-29T03:12:49;13.20;99.90
41469;DHT22;27206;47.032;15.484;2023-05-29T03:15:16;13.10;99.90
41469;DHT22;27206;47.032;15.484;2023-05-29T03:17:45;13.10;99.90
41469;DHT22;27206;47.032;15.484;2023-05-29T03:20:11;13.00;99.90
41469;DHT22;27206;47.032;15.484;2023-05-29T03:22:37;13.10;99.90
41469;DHT22;27206;47.032;15.484;2023-05-29T03:25:03;13.00;99.90
41469;DHT22;27206;47.032;15.484;2023-05-29T03:27:32;13.00;99.90
41469;DHT22;27206;47.032;15.484;2023-05-29T03:29:58;12.90;99.90
41469;DHT22;27206;47.032;15.484;2023-05-29T03:32:24;13.00;99.90
41469;DHT22;27206;47.032;15.484;2023-05-29T03:34:50;13.00;99.90
41469;DHT22;27206;47.032;15.484;2023-05-29T03:37:16;13.10;99.90
41469;DHT22;27206;47.032;15.484;2023-05-29T03:39:41;13.00;99.90
41469;DHT22;27206;47.032;15.484;2023-05-29T03:42:07;13.00;99.90
41469;DHT22;27206;47.032;15.484;2023-05-29T03:44:33;13.00;99.90
41469;DHT22;27206;47.032;15.484;2023-05-29T03:46:58;13.00;99.90
41469;DHT22;27206;47.032;15.484;2023-05-29T03:49:24;13.00;99.90
41469;DHT22;27206;47.032;15.484;2023-05-29T03:51:50;13.00;99.90
41469;DHT22;27206;47.032;15.484;2023-05-29T03:54:16;13.00;99.90
41469;DHT22;27206;47.032;15.484;2023-05-29T03:56:41;13.00;99.90
41469;DHT22;27206;47.032;15.484;2023-05-29T03:59:07;13.00;99.90
41469;DHT22;27206;47.032;15.484;2023-05-29T04:01:33;13.00;99.90
41469;DHT22;27206;47.032;15.484;2023-05-29T04:03:59;13.00;99.90
41469;DHT22;27206;47.032;15.484;2023-05-29T04:06:24;13.00;99.90
41469;DHT22;27206;47.032;15.484;2023-05-29T04:08:50;13.10;99.90
41469;DHT22;27206;47.032;15.484;2023-05-29T04:11:15;13.10;99.90
41469;DHT22;27206;47.032;15.484;2023-05-29T04:13:41;13.20;99.90
41469;DHT22;27206;47.032;15.484;2023-05-29T04:16:07;13.20;99.90
41469;DHT22;27206;47.032;15.484;2023-05-29T04:18:33;13.30;99.90
41469;DHT22;27206;47.032;15.484;2023-05-29T04:20:59;13.30;99.90
41469;DHT22;27206;47.032;15.484;2023-05-29T04:23:24;13.40;99.90
41469;DHT22;27206;47.032;15.484;2023-05-29T04:25:50;13.40;99.90
41469;DHT22;27206;47.032;15.484;2023-05-29T04:28:16;13.50;99.90
41469;DHT22;27206;47.032;15.484;2023-05-29T04:30:42;13.50;99.90
41469;DHT22;27206;47.032;15.484;2023-05-29T04:33:08;13.60;99.90
41469;DHT22;27206;47.032;15.484;2023-05-29T04:35:38;13.70;99.90
41469;DHT22;27206;47.032;15.484;2023-05-29T04:38:03;13.80;99.90
41469;DHT22;27206;47.032;15.484;2023-05-29T04:40:30;13.90;99.90
41469;DHT22;27206;47.032;15.484;2023-05-29T04:42:57;14.00;99.90
41469;DHT22;27206;47.032;15.484;2023-05-29T04:45:26;14.00;99.90
41469;DHT22;27206;47.032;15.484;2023-05-29T04:47:51;14.20;99.90
41469;DHT22;27206;47.032;15.484;2023-05-29T04:50:18;14.30;99.90
41469;DHT22;27206;47.032;15.484;2023-05-29T04:52:44;14.30;99.90
41469;DHT22;27206;47.032;15.484;2023-05-29T04:55:10;14.40;99.90
41469;DHT22;27206;47.032;15.484;2023-05-29T04:57:36;14.50;99.90
41469;DHT22;27206;47.032;15.484;2023-05-29T05:00:03;14.60;99.90
41469;DHT22;27206;47.032;15.484;2023-05-29T05:02:32;14.70;99.90
41469;DHT22;27206;47.032;15.484;2023-05-29T05:04:58;14.70;99.90
41469;DHT22;27206;47.032;15.484;2023-05-29T05:07:24;14.70;99.90
41469;DHT22;27206;47.032;15.484;2023-05-29T05:09:50;14.90;99.90
41469;DHT22;27206;47.032;15.484;2023-05-29T05:12:15;15.00;99.90
41469;DHT22;27206;47.032;15.484;2023-05-29T05:14:41;15.00;99.90
41469;DHT22;27206;47.032;15.484;2023-05-29T05:17:07;15.10;99.90
41469;DHT22;27206;47.032;15.484;2023-05-29T05:19:32;15.10;99.90
41469;DHT22;27206;47.032;15.484;2023-05-29T05:21:58;15.10;99.90
41469;DHT22;27206;47.032;15.484;2023-05-29T05:24:23;15.20;99.90
41469;DHT22;27206;47.032;15.484;2023-05-29T05:26:49;15.30;99.90
41469;DHT22;27206;47.032;15.484;2023-05-29T05:29:14;15.40;99.90
41469;DHT22;27206;47.032;15.484;2023-05-29T05:31:40;15.40;99.90
41469;DHT22;27206;47.032;15.484;2023-05-29T05:34:06;15.50;99.90
41469;DHT22;27206;47.032;15.484;2023-05-29T05:36:31;15.60;99.90
41469;DHT22;27206;47.032;15.484;2023-05-29T05:38:58;15.60;99.90
41469;DHT22;27206;47.032;15.484;2023-05-29T05:41:23;15.70;99.90
41469;DHT22;27206;47.032;15.484;2023-05-29T05:43:49;15.80;99.90
41469;DHT22;27206;47.032;15.484;2023-05-29T05:46:15;15.80;99.90
41469;DHT22;27206;47.032;15.484;2023-05-29T05:48:42;16.00;99.90
41469;DHT22;27206;47.032;15.484;2023-05-29T05:51:08;16.10;99.90
41469;DHT22;27206;47.032;15.484;2023-05-29T05:53:34;16.20;99.90
41469;DHT22;27206;47.032;15.484;2023-05-29T05:55:59;16.30;99.90
41469;DHT22;27206;47.032;15.484;2023-05-29T05:58:25;16.40;99.90
41469;DHT22;27206;47.032;15.484;2023-05-29T06:00:51;16.60;99.90
41469;DHT22;27206;47.032;15.484;2023-05-29T06:03:18;16.60;99.90
41469;DHT22;27206;47.032;15.484;2023-05-29T06:05:43;16.70;99.90
41469;DHT22;27206;47.032;15.484;2023-05-29T06:08:09;16.80;99.90
41469;DHT22;27206;47.032;15.484;2023-05-29T06:10:34;16.80;99.90
41469;DHT22;27206;47.032;15.484;2023-05-29T06:13:00;16.80;99.90
41469;DHT22;27206;47.032;15.484;2023-05-29T06:15:26;17.00;99.90
41469;DHT22;27206;47.032;15.484;2023-05-29T06:17:51;17.10;99.90
41469;DHT22;27206;47.032;15.484;2023-05-29T06:20:17;17.10;99.90
41469;DHT22;27206;47.032;15.484;2023-05-29T06:22:44;17.20;99.90
41469;DHT22;27206;47.032;15.484;2023-05-29T06:25:18;17.20;99.90
41469;DHT22;27206;47.032;15.484;2023-05-29T06:27:45;17.30;99.90
41469;DHT22;27206;47.032;15.484;2023-05-29T06:30:11;17.40;99.90
41469;DHT22;27206;47.032;15.484;2023-05-29T06:32:37;17.50;99.90
41469;DHT22;27206;47.032;15.484;2023-05-29T06:35:03;17.50;99.90
41469;DHT22;27206;47.032;15.484;2023-05-29T06:37:29;17.60;99.90
41469;DHT22;27206;47.032;15.484;2023-05-29T06:39:54;17.80;99.90
41469;DHT22;27206;47.032;15.484;2023-05-29T06:42:20;17.80;99.90
41469;DHT22;27206;47.032;15.484;2023-05-29T06:44:46;17.90;99.90
41469;DHT22;27206;47.032;15.484;2023-05-29T06:47:11;18.00;99.90
41469;DHT22;27206;47.032;15.484;2023-05-29T06:49:37;18.00;99.90
41469;DHT22;27206;47.032;15.484;2023-05-29T06:52:02;18.10;99.90
41469;DHT22;27206;47.032;15.484;2023-05-29T06:54:28;18.20;99.90
41469;DHT22;27206;47.032;15.484;2023-05-29T06:56:53;18.30;99.90
41469;DHT22;27206;47.032;15.484;2023-05-29T06:59:20;18.30;99.90
41469;DHT22;27206;47.032;15.484;2023-05-29T07:01:45;18.40;99.90
41469;DHT22;27206;47.032;15.484;2023-05-29T07:04:11;18.50;99.90
41469;DHT22;27206;47.032;15.484;2023-05-29T07:06:37;18.50;99.90
41469;DHT22;27206;47.032;15.484;2023-05-29T07:09:04;18.60;99.90
41469;DHT22;27206;47.032;15.484;2023-05-29T07:11:29;18.60;99.90
41469;DHT22;27206;47.032;15.484;2023-05-29T07:13:55;18.70;99.90
41469;DHT22;27206;47.032;15.484;2023-05-29T07:16:21;18.80;99.90
41469;DHT22;27206;47.032;15.484;2023-05-29T07:18:46;18.90;99.90
41469;DHT22;27206;47.032;15.484;2023-05-29T07:21:12;19.00;99.90
41469;DHT22;27206;47.032;15.484;2023-05-29T07:23:37;19.10;99.90
41469;DHT22;27206;47.032;15.484;2023-05-29T07:26:03;19.20;99.90
41469;DHT22;27206;47.032;15.484;2023-05-29T07:28:28;19.20;99.90
41469;DHT22;27206;47.032;15.484;2023-05-29T07:30:54;19.40;99.90
41469;DHT22;27206;47.032;15.484;2023-05-29T07:33:20;19.40;99.90
41469;DHT22;27206;47.032;15.484;2023-05-29T07:35:46;19.50;99.90
41469;DHT22;27206;47.032;15.484;2023-05-29T07:38:11;19.60;99.90
41469;DHT22;27206;47.032;15.484;2023-05-29T07:40:37;19.60;99.90
41469;DHT22;27206;47.032;15.484;2023-05-29T07:43:03;19.80;99.90
41469;DHT22;27206;47.032;15.484;2023-05-29T07:45:28;20.10;99.90
41469;DHT22;27206;47.032;15.484;2023-05-29T07:47:54;20.10;99.90
41469;DHT22;27206;47.032;15.484;2023-05-29T07:50:20;20.20;99.90
41469;DHT22;27206;47.032;15.484;2023-05-29T07:52:45;20.20;99.90
41469;DHT22;27206;47.032;15.484;2023-05-29T07:55:11;20.30;99.90
41469;DHT22;27206;47.032;15.484;2023-05-29T07:57:36;20.30;99.90
41469;DHT22;27206;47.032;15.484;2023-05-29T08:00:03;20.30;99.90
41469;DHT22;27206;47.032;15.484;2023-05-29T08:02:34;20.40;99.90
41469;DHT22;27206;47.032;15.484;2023-05-29T08:05:02;20.50;99.90
41469;DHT22;27206;47.032;15.484;2023-05-29T08:07:28;20.70;99.90
41469;DHT22;27206;47.032;15.484;2023-05-29T08:09:54;20.80;99.90
41469;DHT22;27206;47.032;15.484;2023-05-29T08:12:20;20.80;99.90
41469;DHT22;27206;47.032;15.484;2023-05-29T08:14:45;21.00;99.90
41469;DHT22;27206;47.032;15.484;2023-05-29T08:17:11;21.10;99.90
41469;DHT22;27206;47.032;15.484;2023-05-29T08:19:37;21.20;99.90
41469;DHT22;27206;47.032;15.484;2023-05-29T08:22:02;21.40;99.90
41469;DHT22;27206;47.032;15.484;2023-05-29T08:24:28;21.30;99.90
41469;DHT22;27206;47.032;15.484;2023-05-29T08:26:54;21.40;99.90
41469;DHT22;27206;47.032;15.484;2023-05-29T08:29:20;21.50;99.90
41469;DHT22;27206;47.032;15.484;2023-05-29T08:31:45;21.50;99.90
41469;DHT22;27206;47.032;15.484;2023-05-29T08:34:11;21.50;99.90
41469;DHT22;27206;47.032;15.484;2023-05-29T08:36:37;21.70;99.90
41469;DHT22;27206;47.032;15.484;2023-05-29T08:39:03;22.00;99.90
41469;DHT22;27206;47.032;15.484;2023-05-29T08:44:13;22.30;99.90
41469;DHT22;27206;47.032;15.484;2023-05-29T08:46:40;22.40;99.90
41469;DHT22;27206;47.032;15.484;2023-05-29T08:49:08;22.40;99.90
41469;DHT22;27206;47.032;15.484;2023-05-29T08:51:37;22.40;99.90
41469;DHT22;27206;47.032;15.484;2023-05-29T08:54:05;22.50;99.90
41469;DHT22;27206;47.032;15.484;2023-05-29T08:56:31;22.50;99.90
41469;DHT22;27206;47.032;15.484;2023-05-29T08:58:57;22.60;99.90
41469;DHT22;27206;47.032;15.484;2023-05-29T09:01:25;22.60;99.90
41469;DHT22;27206;47.032;15.484;2023-05-29T09:03:50;22.80;99.90
41469;DHT22;27206;47.032;15.484;2023-05-29T09:06:16;23.20;99.90
41469;DHT22;27206;47.032;15.484;2023-05-29T09:08:43;23.60;99.90
41469;DHT22;27206;47.032;15.484;2023-05-29T09:11:09;23.60;99.90
41469;DHT22;27206;47.032;15.484;2023-05-29T09:13:35;23.40;99.90
41469;DHT22;27206;47.032;15.484;2023-05-29T09:16:01;23.50;99.90
41469;DHT22;27206;47.032;15.484;2023-05-29T09:18:30;23.50;99.90
41469;DHT22;27206;47.032;15.484;2023-05-29T09:20:57;23.50;99.90
41469;DHT22;27206;47.032;15.484;2023-05-29T09:23:23;23.60;99.90
41469;DHT22;27206;47.032;15.484;2023-05-29T09:25:53;23.20;99.90
41469;DHT22;27206;47.032;15.484;2023-05-29T09:28:21;23.70;99.90
41469;DHT22;27206;47.032;15.484;2023-05-29T09:30:49;24.00;99.90
41469;DHT22;27206;47.032;15.484;2023-05-29T09:33:15;24.10;99.90
41469;DHT22;27206;47.032;15.484;2023-05-29T09:35:48;24.00;99.90
41469;DHT22;27206;47.032;15.484;2023-05-29T09:38:16;24.30;99.90
41469;DHT22;27206;47.032;15.484;2023-05-29T09:40:42;24.30;99.90
41469;DHT22;27206;47.032;15.484;2023-05-29T09:43:13;24.10;99.90
41469;DHT22;27206;47.032;15.484;2023-05-29T09:45:40;24.40;99.90
41469;DHT22;27206;47.032;15.484;2023-05-29T09:48:07;24.60;99.90
41469;DHT22;27206;47.032;15.484;2023-05-29T09:50:36;24.90;99.90
41469;DHT22;27206;47.032;15.484;2023-05-29T09:53:01;24.90;99.90
41469;DHT22;27206;47.032;15.484;2023-05-29T09:55:28;24.90;99.90
41469;DHT22;27206;47.032;15.484;2023-05-29T09:57:57;24.70;99.90
41469;DHT22;27206;47.032;15.484;2023-05-29T10:00:24;24.80;99.90
41469;DHT22;27206;47.032;15.484;2023-05-29T10:02:49;24.70;99.90
41469;DHT22;27206;47.032;15.484;2023-05-29T10:05:15;24.90;99.90
41469;DHT22;27206;47.032;15.484;2023-05-29T10:07:44;25.20;99.90
41469;DHT22;27206;47.032;15.484;2023-05-29T10:10:14;25.10;99.90
41469;DHT22;27206;47.032;15.484;2023-05-29T10:12:46;25.10;99.90
41469;DHT22;27206;47.032;15.484;2023-05-29T10:15:13;25.20;99.90
41469;DHT22;27206;47.032;15.484;2023-05-29T10:17:44;25.40;99.90
41469;DHT22;27206;47.032;15.484;2023-05-29T10:20:17;25.50;99.90
41469;DHT22;27206;47.032;15.484;2023-05-29T10:22:47;24.80;99.90
41469;DHT22;27206;47.032;15.484;2023-05-29T10:25:19;24.80;99.90
41469;DHT22;27206;47.032;15.484;2023-05-29T10:27:45;25.50;99.90
41469;DHT22;27206;47.032;15.484;2023-05-29T10:33:13;25.70;99.90
41469;DHT22;27206;47.032;15.484;2023-05-29T10:38:28;25.50;99.90
41469;DHT22;27206;47.032;15.484;2023-05-29T10:40:54;26.10;99.90
41469;DHT22;27206;47.032;15.484;2023-05-29T10:43:34;26.20;99.90
41469;DHT22;27206;47.032;15.484;2023-05-29T10:46:02;26.50;99.90
41469;DHT22;27206;47.032;15.484;2023-05-29T10:48:39;26.30;99.90
41469;DHT22;27206;47.032;15.484;2023-05-29T10:51:06;26.60;99.90
41469;DHT22;27206;47.032;15.484;2023-05-29T10:53:34;26.20;99.90
41469;DHT22;27206;47.032;15.484;2023-05-29T10:56:00;25.90;99.90
41469;DHT22;27206;47.032;15.484;2023-05-29T10:58:30;26.20;99.90
41469;DHT22;27206;47.032;15.484;2023-05-29T11:00:55;26.20;99.90
41469;DHT22;27206;47.032;15.484;2023-05-29T11:03:25;25.50;99.90
41469;DHT22;27206;47.032;15.484;2023-05-29T11:06:02;26.90;99.90
41469;DHT22;27206;47.032;15.484;2023-05-29T11:08:33;27.60;99.90
41469;DHT22;27206;47.032;15.484;2023-05-29T11:11:03;27.30;99.90
41469;DHT22;27206;47.032;15.484;2023-05-29T11:13:34;26.60;99.90
41469;DHT22;27206;47.032;15.484;2023-05-29T11:16:13;26.20;99.90
41469;DHT22;27206;47.032;15.484;2023-05-29T11:18:49;26.60;99.90
41469;DHT22;27206;47.032;15.484;2023-05-29T11:24:07;25.70;99.90
41469;DHT22;27206;47.032;15.484;2023-05-29T11:26:39;26.60;99.90
41469;DHT22;27206;47.032;15.484;2023-05-29T11:29:05;27.30;99.90
41469;DHT22;27206;47.032;15.484;2023-05-29T11:31:33;28.30;99.90
41469;DHT22;27206;47.032;15.484;2023-05-29T11:34:00;29.00;99.90
41469;DHT22;27206;47.032;15.484;2023-05-29T11:36:29;29.10;99.90
41469;DHT22;27206;47.032;15.484;2023-05-29T11:38:56;28.60;99.90
41469;DHT22;27206;47.032;15.484;2023-05-29T11:41:22;28.50;99.90
41469;DHT22;27206;47.032;15.484;2023-05-29T11:44:04;28.80;99.90
41469;DHT22;27206;47.032;15.484;2023-05-29T11:46:34;28.40;99.90
41469;DHT22;27206;47.032;15.484;2023-05-29T11:49:00;29.00;99.90
41469;DHT22;27206;47.032;15.484;2023-05-29T11:51:27;29.40;99.90
41469;DHT22;27206;47.032;15.484;2023-05-29T11:53:52;29.10;99.90
41469;DHT22;27206;47.032;15.484;2023-05-29T11:56:24;29.00;99.90
41469;DHT22;27206;47.032;15.484;2023-05-29T11:58:51;29.10;99.90
41469;DHT22;27206;47.032;15.484;2023-05-29T12:01:17;29.30;99.90
41469;DHT22;27206;47.032;15.484;2023-05-29T12:03:44;29.40;99.90
41469;DHT22;27206;47.032;15.484;2023-05-29T12:06:10;29.70;99.90
41469;DHT22;27206;47.032;15.484;2023-05-29T12:08:37;29.80;99.90
41469;DHT22;27206;47.032;15.484;2023-05-29T12:11:03;29.30;99.90
41469;DHT22;27206;47.032;15.484;2023-05-29T12:13:29;29.50;99.90
41469;DHT22;27206;47.032;15.484;2023-05-29T12:16:01;30.30;99.90
41469;DHT22;27206;47.032;15.484;2023-05-29T12:18:28;30.50;99.90
41469;DHT22;27206;47.032;15.484;2023-05-29T12:21:02;31.30;99.90
41469;DHT22;27206;47.032;15.484;2023-05-29T12:23:31;30.90;99.90
41469;DHT22;27206;47.032;15.484;2023-05-29T12:25:58;31.20;99.90
41469;DHT22;27206;47.032;15.484;2023-05-29T12:28:25;31.70;99.90
41469;DHT22;27206;47.032;15.484;2023-05-29T12:30:50;32.00;99.90
41469;DHT22;27206;47.032;15.484;2023-05-29T12:33:28;31.80;99.90
41469;DHT22;27206;47.032;15.484;2023-05-29T12:35:54;32.10;99.90
41469;DHT22;27206;47.032;15.484;2023-05-29T12:38:22;32.20;99.90
41469;DHT22;27206;47.032;15.484;2023-05-29T12:40:49;31.60;99.90
41469;DHT22;27206;47.032;15.484;2023-05-29T12:43:16;31.40;99.90
41469;DHT22;27206;47.032;15.484;2023-05-29T12:45:42;31.20;99.90
41469;DHT22;27206;47.032;15.484;2023-05-29T12:48:08;31.30;99.90
41469;DHT22;27206;47.032;15.484;2023-05-29T12:50:36;31.50;99.90
41469;DHT22;27206;47.032;15.484;2023-05-29T12:53:09;31.80;99.90
41469;DHT22;27206;47.032;15.484;2023-05-29T12:55:39;31.60;99.90
41469;DHT22;27206;47.032;15.484;2023-05-29T12:58:06;31.90;99.90
41469;DHT22;27206;47.032;15.484;2023-05-29T13:00:33;32.10;99.90
41469;DHT22;27206;47.032;15.484;2023-05-29T13:02:59;32.20;99.90
41469;DHT22;27206;47.032;15.484;2023-05-29T13:05:26;32.10;99.90
41469;DHT22;27206;47.032;15.484;2023-05-29T13:07:52;32.40;99.90
41469;DHT22;27206;47.032;15.484;2023-05-29T13:10:21;33.10;99.90
41469;DHT22;27206;47.032;15.484;2023-05-29T13:12:48;34.10;99.90
41469;DHT22;27206;47.032;15.484;2023-05-29T13:15:19;33.90;99.90
41469;DHT22;27206;47.032;15.484;2023-05-29T13:17:44;32.50;99.90
41469;DHT22;27206;47.032;15.484;2023-05-29T13:20:11;33.00;99.90
41469;DHT22;27206;47.032;15.484;2023-05-29T13:22:39;33.40;99.90
41469;DHT22;27206;47.032;15.484;2023-05-29T13:25:05;32.70;99.90
41469;DHT22;27206;47.032;15.484;2023-05-29T13:27:36;32.30;99.90
41469;DHT22;27206;47.032;15.484;2023-05-29T13:30:03;32.30;99.90
41469;DHT22;27206;47.032;15.484;2023-05-29T13:32:28;32.70;99.90
41469;DHT22;27206;47.032;15.484;2023-05-29T13:34:54;33.20;99.90
41469;DHT22;27206;47.032;15.484;2023-05-29T13:37:20;32.10;99.90
41469;DHT22;27206;47.032;15.484;2023-05-29T13:39:46;32.30;99.90
41469;DHT22;27206;47.032;15.484;2023-05-29T13:42:12;32.80;99.90
41469;DHT22;27206;47.032;15.484;2023-05-29T13:44:38;33.10;99.90
41469;DHT22;27206;47.032;15.484;2023-05-29T13:47:05;32.80;99.90
41469;DHT22;27206;47.032;15.484;2023-05-29T13:49:31;33.20;99.90
41469;DHT22;27206;47.032;15.484;2023-05-29T13:51:56;33.60;99.90
41469;DHT22;27206;47.032;15.484;2023-05-29T13:54:22;33.80;99.90
41469;DHT22;27206;47.032;15.484;2023-05-29T13:56:48;34.10;99.90
41469;DHT22;27206;47.032;15.484;2023-05-29T13:59:16;34.10;99.90
41469;DHT22;27206;47.032;15.484;2023-05-29T14:01:41;34.00;99.90
41469;DHT22;27206;47.032;15.484;2023-05-29T14:04:07;33.70;99.90
41469;DHT22;27206;47.032;15.484;2023-05-29T14:06:33;33.50;99.90
41469;DHT22;27206;47.032;15.484;2023-05-29T14:08:59;33.60;99.90
41469;DHT22;27206;47.032;15.484;2023-05-29T14:11:26;33.60;99.90
41469;DHT22;27206;47.032;15.484;2023-05-29T14:13:52;32.50;99.90
41469;DHT22;27206;47.032;15.484;2023-05-29T14:16:17;31.60;99.90
41469;DHT22;27206;47.032;15.484;2023-05-29T14:18:43;30.50;99.90
41469;DHT22;27206;47.032;15.484;2023-05-29T14:21:09;30.00;99.90
41469;DHT22;27206;47.032;15.484;2023-05-29T14:23:35;30.40;99.90
41469;DHT22;27206;47.032;15.484;2023-05-29T14:26:01;31.30;99.90
41469;DHT22;27206;47.032;15.484;2023-05-29T14:28:27;31.70;99.90
41469;DHT22;27206;47.032;15.484;2023-05-29T14:30:52;32.00;99.90
41469;DHT22;27206;47.032;15.484;2023-05-29T14:33:18;32.30;99.90
41469;DHT22;27206;47.032;15.484;2023-05-29T14:35:44;32.70;99.90
41469;DHT22;27206;47.032;15.484;2023-05-29T14:38:10;31.40;99.90
41469;DHT22;27206;47.032;15.484;2023-05-29T14:40:35;30.40;99.90
41469;DHT22;27206;47.032;15.484;2023-05-29T14:43:02;30.30;99.90
41469;DHT22;27206;47.032;15.484;2023-05-29T14:45:28;31.20;99.90
41469;DHT22;27206;47.032;15.484;2023-05-29T14:47:53;31.10;99.90
41469;DHT22;27206;47.032;15.484;2023-05-29T14:50:19;30.90;99.90
41469;DHT22;27206;47.032;15.484;2023-05-29T14:52:45;31.10;99.90
41469;DHT22;27206;47.032;15.484;2023-05-29T14:55:13;31.40;99.90
41469;DHT22;27206;47.032;15.484;2023-05-29T14:57:40;31.70;99.90
41469;DHT22;27206;47.032;15.484;2023-05-29T15:00:07;32.10;99.90
41469;DHT22;27206;47.032;15.484;2023-05-29T15:02:32;31.90;99.90
41469;DHT22;27206;47.032;15.484;2023-05-29T15:04:59;31.50;99.90
41469;DHT22;27206;47.032;15.484;2023-05-29T15:07:25;31.70;99.90
41469;DHT22;27206;47.032;15.484;2023-05-29T15:09:51;30.50;99.90
41469;DHT22;27206;47.032;15.484;2023-05-29T15:12:16;30.60;99.90
41469;DHT22;27206;47.032;15.484;2023-05-29T15:14:42;30.80;99.90
41469;DHT22;27206;47.032;15.484;2023-05-29T15:17:08;30.40;99.90
41469;DHT22;27206;47.032;15.484;2023-05-29T15:19:34;30.50;99.90
41469;DHT22;27206;47.032;15.484;2023-05-29T15:22:00;30.70;99.90
41469;DHT22;27206;47.032;15.484;2023-05-29T15:24:25;31.00;99.90
41469;DHT22;27206;47.032;15.484;2023-05-29T15:26:51;30.90;99.90
41469;DHT22;27206;47.032;15.484;2023-05-29T15:29:16;31.10;99.90
41469;DHT22;27206;47.032;15.484;2023-05-29T15:31:42;31.10;99.90
41469;DHT22;27206;47.032;15.484;2023-05-29T15:34:08;31.40;99.90